Time;durP1;ratioP1;P1;durP2;ratioP2;P2;SDS_P1;SDS_P2;PMS_P1;PMS_P2;Temp;Humidity;BMP_temperature;BMP_pressure;BME280_temperature;BME280_humidity;BME280_pressure;Samples;Min_cycle;Max_cycle;Signal;HPM_P1;HPM_P2
2023/06/03 00:01:24;;;;;;;8.10;2.80;;;;;;;22.76;49.37;100116.84;108490;1271;21986;-70
2023/06/03 00:03:50;;;;;;;6.40;2.70;;;;;;;22.73;49.51;100118.95;108515;1271;22001;-64
2023/06/03 00:06:16;;;;;;;5.90;2.60;;;;;;;22.73;49.52;100117.05;108535;1270;21989;-70
2023/06/03 00:08:42;;;;;;;6.70;3.30;;;;;;;22.69;49.84;100113.70;108474;1280;21978;-70
2023/06/03 00:11:09;;;;;;;9.30;3.70;;;;;;;22.67;49.94;100114.17;108468;1277;21986;-66
2023/06/03 00:13:35;;;;;;;6.20;3.20;;;;;;;22.59;50.40;100114.19;108470;1280;23062;-63
2023/06/03 00:16:00;;;;;;;6.30;2.90;;;;;;;22.52;51.30;100111.62;108532;1268;21983;-69
2023/06/03 00:18:26;;;;;;;5.90;3.40;;;;;;;22.47;51.38;100107.54;108559;1270;21998;-65
2023/06/03 00:20:55;;;;;;;8.30;2.90;;;;;;;22.45;51.60;100106.20;108525;1280;21990;-71
2023/06/03 00:23:20;;;;;;;5.20;3.10;;;;;;;22.44;52.20;100107.69;108533;1280;21983;-62
2023/06/03 00:25:47;;;;;;;5.40;3.00;;;;;;;22.46;52.29;100105.02;108501;1270;22028;-70
2023/06/03 00:28:12;;;;;;;5.50;3.40;;;;;;;22.54;51.85;100105.21;108474;1277;21975;-71
2023/06/03 00:30:38;;;;;;;6.00;3.20;;;;;;;22.59;52.00;100102.75;108451;1271;22070;-63
2023/06/03 00:33:04;;;;;;;6.80;3.00;;;;;;;22.61;52.42;100100.48;108457;1277;21985;-63
2023/06/03 00:35:33;;;;;;;7.80;3.20;;;;;;;22.63;51.86;100100.89;108391;1270;175837;-63
2023/06/03 00:37:59;;;;;;;6.60;3.00;;;;;;;22.65;52.37;100098.23;108598;1273;23153;-64
2023/06/03 00:40:25;;;;;;;4.40;2.80;;;;;;;22.65;52.16;100098.20;108471;1280;21985;-70
2023/06/03 00:42:50;;;;;;;6.40;3.40;;;;;;;22.68;52.26;100093.60;108536;1270;21991;-71
2023/06/03 00:45:16;;;;;;;5.20;2.80;;;;;;;22.69;51.91;100093.52;108436;1274;21988;-63
2023/06/03 00:47:41;;;;;;;5.60;3.90;;;;;;;22.70;51.98;100092.34;108378;1274;22059;-63
2023/06/03 00:50:08;;;;;;;7.10;3.30;;;;;;;22.71;51.79;100089.98;108472;1279;21985;-64
2023/06/03 00:52:35;;;;;;;5.30;3.30;;;;;;;22.72;51.89;100089.38;108453;1273;21976;-64
2023/06/03 00:55:01;;;;;;;7.40;3.40;;;;;;;22.70;52.22;100088.61;108462;1279;21991;-70
2023/06/03 00:57:27;;;;;;;5.50;3.60;;;;;;;22.67;51.96;100087.38;108500;1274;22020;-70
2023/06/03 00:59:53;;;;;;;7.80;3.70;;;;;;;22.63;52.02;100085.67;108378;1271;21984;-72
2023/06/03 01:02:21;;;;;;;5.50;3.50;;;;;;;22.59;52.03;100083.10;108658;1276;22788;-63
2023/06/03 01:04:47;;;;;;;7.50;3.60;;;;;;;22.53;52.54;100083.50;108512;1274;21980;-63
2023/06/03 01:07:41;;;;;;;6.40;3.40;;;;;;;22.45;52.85;100084.33;108425;1279;22020;-71
2023/06/03 01:10:21;;;;;;;7.30;4.10;;;;;;;22.39;52.52;100078.14;108477;1268;21992;-63
2023/06/03 01:13:12;;;;;;;12.40;3.80;;;;;;;22.33;53.92;100081.72;108425;1268;21994;-71
2023/06/03 01:15:38;;;;;;;5.90;3.40;;;;;;;22.25;53.79;100084.02;108428;1279;21975;-71
2023/06/03 01:18:04;;;;;;;3.90;2.60;;;;;;;22.22;53.76;100086.74;108584;1279;21998;-74
2023/06/03 01:20:30;;;;;;;6.10;3.00;;;;;;;22.22;54.47;100084.27;108459;1273;22008;-63
2023/06/03 01:23:23;;;;;;;6.50;3.40;;;;;;;22.18;55.72;100083.09;108518;1279;21941;-73
2023/06/03 01:25:52;;;;;;;6.60;3.40;;;;;;;22.11;55.56;100082.98;108507;1276;21990;-73
2023/06/03 01:28:20;;;;;;;5.30;3.00;;;;;;;22.07;56.57;100083.44;108564;1277;23185;-63
2023/06/03 01:30:47;;;;;;;6.80;3.40;;;;;;;22.06;56.89;100081.73;108650;1268;21981;-74
2023/06/03 01:33:13;;;;;;;5.70;3.20;;;;;;;22.05;57.29;100081.41;108486;1273;21984;-63
2023/06/03 01:35:39;;;;;;;5.80;3.50;;;;;;;22.07;57.64;100082.92;108509;1273;21980;-63
2023/06/03 01:38:05;;;;;;;7.80;3.50;;;;;;;22.08;59.31;100083.75;108411;1279;21988;-65
2023/06/03 01:40:31;;;;;;;6.00;3.70;;;;;;;22.05;60.33;100084.64;108461;1268;21976;-62
2023/06/03 01:42:56;;;;;;;7.40;3.10;;;;;;;22.06;58.43;100086.52;108543;1270;22018;-62
2023/06/03 01:45:22;;;;;;;6.90;3.40;;;;;;;22.09;58.54;100087.04;108416;1273;22008;-64
2023/06/03 01:47:48;;;;;;;5.90;3.80;;;;;;;22.11;58.63;100085.29;108455;1268;21981;-62
2023/06/03 01:50:16;;;;;;;7.70;3.30;;;;;;;22.12;58.35;100089.02;108510;1270;22022;-70
2023/06/03 01:52:45;;;;;;;8.20;3.80;;;;;;;22.13;57.95;100092.69;108501;1277;21981;-63
2023/06/03 01:55:12;;;;;;;7.70;3.30;;;;;;;22.12;57.44;100095.10;108511;1267;21980;-70
2023/06/03 01:57:37;;;;;;;8.70;3.70;;;;;;;22.09;57.35;100093.61;108459;1273;21979;-71
2023/06/03 02:00:06;;;;;;;7.80;3.50;;;;;;;22.09;57.02;100091.30;108457;1279;21985;-63
2023/06/03 02:02:33;;;;;;;5.00;3.30;;;;;;;22.10;56.99;100091.44;108573;1274;21982;-62
2023/06/03 02:04:59;;;;;;;7.00;3.70;;;;;;;22.12;56.78;100090.41;108402;1274;22016;-70
2023/06/03 02:07:30;;;;;;;8.80;3.40;;;;;;;22.14;56.66;100092.98;108415;1279;21983;-68
2023/06/03 02:09:59;;;;;;;5.90;3.30;;;;;;;22.12;56.51;100093.06;108423;1268;21984;-70
2023/06/03 02:12:25;;;;;;;7.60;3.60;;;;;;;22.09;56.26;100097.98;108414;1279;22445;-71
2023/06/03 02:14:54;;;;;;;6.30;3.40;;;;;;;22.03;56.28;100096.19;108410;1273;21977;-72
2023/06/03 02:17:22;;;;;;;7.30;3.20;;;;;;;21.97;56.49;100090.11;108615;1280;21998;-70
2023/06/03 02:19:48;;;;;;;4.20;3.40;;;;;;;21.88;57.20;100090.70;108569;1277;22016;-62
2023/06/03 02:22:15;;;;;;;6.70;3.30;;;;;;;21.80;57.57;100090.54;108497;1274;23740;-62
2023/06/03 02:24:40;;;;;;;7.70;4.10;;;;;;;21.72;58.76;100090.27;108575;1268;22730;-62
2023/06/03 02:27:07;;;;;;;11.40;3.90;;;;;;;21.64;59.28;100091.01;108520;1280;21974;-72
2023/06/03 02:29:33;;;;;;;15.60;4.20;;;;;;;21.58;59.28;100093.30;108524;1277;22033;-61
2023/06/03 02:31:59;;;;;;;9.00;4.30;;;;;;;21.61;58.75;100092.08;108486;1273;22093;-72
2023/06/03 02:34:25;;;;;;;6.30;3.30;;;;;;;21.63;58.35;100087.81;108428;1273;22021;-69
2023/06/03 02:36:52;;;;;;;6.60;3.70;;;;;;;21.65;58.74;100094.27;109373;1269;21987;-61
2023/06/03 02:39:18;;;;;;;7.40;3.90;;;;;;;21.65;59.88;100098.27;108489;1273;22041;-73
2023/06/03 02:41:44;;;;;;;5.40;3.70;;;;;;;21.60;60.67;100099.63;108453;1273;21999;-62
2023/06/03 02:44:10;;;;;;;10.40;4.20;;;;;;;21.54;60.73;100101.23;108530;1273;21979;-62
2023/06/03 02:46:36;;;;;;;6.60;3.50;;;;;;;21.50;61.04;100105.92;108514;1280;22030;-61
2023/06/03 02:49:06;;;;;;;9.60;4.20;;;;;;;21.52;61.05;100105.27;108506;1280;21980;-61
2023/06/03 02:51:35;;;;;;;8.00;4.10;;;;;;;21.56;61.31;100105.40;108502;1277;23705;-61
2023/06/03 02:54:00;;;;;;;5.50;3.70;;;;;;;21.60;61.37;100108.88;108473;1270;21970;-73
2023/06/03 02:56:26;;;;;;;6.90;3.80;;;;;;;21.66;61.34;100113.02;108511;1277;21978;-61
2023/06/03 02:58:52;;;;;;;11.00;4.60;;;;;;;21.72;63.93;100115.66;108502;1273;21984;-61
2023/06/03 03:01:18;;;;;;;8.40;3.90;;;;;;;21.73;64.06;100110.57;108508;1273;21984;-62
2023/06/03 03:03:44;;;;;;;7.50;3.80;;;;;;;21.77;63.13;100109.10;108485;1274;21991;-74
2023/06/03 03:06:11;;;;;;;6.90;3.90;;;;;;;21.80;64.94;100113.69;108480;1271;22088;-61
2023/06/03 03:08:38;;;;;;;11.20;4.40;;;;;;;21.85;63.76;100117.17;108555;1277;21995;-61
2023/06/03 03:11:06;;;;;;;9.30;4.20;;;;;;;21.90;63.30;100119.33;108476;1274;21981;-72
2023/06/03 03:13:31;;;;;;;8.30;4.50;;;;;;;21.95;62.88;100118.46;108514;1280;21988;-74
2023/06/03 03:15:57;;;;;;;12.30;4.20;;;;;;;22.02;63.10;100118.58;108477;1274;21983;-62
2023/06/03 03:18:23;;;;;;;8.30;4.10;;;;;;;22.07;63.27;100120.97;108546;1280;21977;-71
2023/06/03 03:20:49;;;;;;;6.10;4.00;;;;;;;22.11;63.67;100128.50;108570;1270;21974;-62
2023/06/03 03:23:14;;;;;;;9.90;4.60;;;;;;;22.15;63.68;100129.71;108481;1274;21980;-72
2023/06/03 03:25:40;;;;;;;12.20;4.40;;;;;;;22.21;63.74;100129.71;108589;1277;21980;-65
2023/06/03 03:28:06;;;;;;;7.60;4.60;;;;;;;22.27;63.44;100126.62;108560;1270;21985;-62
2023/06/03 03:30:32;;;;;;;8.90;4.00;;;;;;;22.35;64.64;100123.23;108519;1271;22037;-62
2023/06/03 03:32:59;;;;;;;10.10;4.30;;;;;;;22.41;65.03;100123.77;108551;1277;21980;-62
2023/06/03 03:35:25;;;;;;;13.30;4.00;;;;;;;22.48;64.86;100122.24;108478;1270;21985;-64
2023/06/03 03:38:04;;;;;;;6.40;3.90;;;;;;;22.56;65.63;100124.20;108519;1273;21990;-61
2023/06/03 03:40:32;;;;;;;8.30;4.00;;;;;;;22.67;64.67;100126.39;108558;1277;22002;-71
2023/06/03 03:42:59;;;;;;;8.30;3.70;;;;;;;22.77;65.20;100128.23;108547;1275;21988;-71
2023/06/03 03:45:26;;;;;;;7.90;4.00;;;;;;;22.86;65.92;100133.15;108588;1274;21979;-62
2023/06/03 03:47:52;;;;;;;7.40;4.10;;;;;;;22.94;66.32;100137.61;108570;1277;23759;-62
2023/06/03 03:50:51;;;;;;;32.90;5.80;;;;;;;23.02;67.76;100140.13;108439;1273;22929;-70
2023/06/03 03:53:21;;;;;;;8.20;4.30;;;;;;;23.27;66.25;100144.73;108463;1277;21978;-61
2023/06/03 03:55:51;;;;;;;8.40;4.30;;;;;;;23.53;66.51;100143.77;108513;1268;21980;-70
2023/06/03 03:58:25;;;;;;;10.50;4.60;;;;;;;23.64;65.58;100149.32;108538;1280;21988;-61
2023/06/03 04:00:51;;;;;;;10.10;4.30;;;;;;;23.68;65.54;100153.85;108560;1277;23718;-61
2023/06/03 04:03:18;;;;;;;13.30;4.30;;;;;;;23.73;65.33;100153.31;108545;1274;21993;-62
2023/06/03 04:05:44;;;;;;;11.10;3.80;;;;;;;23.82;65.14;100157.68;108497;1277;21980;-62
2023/06/03 04:08:15;;;;;;;4.70;3.40;;;;;;;23.93;64.93;100156.02;108548;1273;21983;-70
2023/06/03 04:10:41;;;;;;;11.00;4.10;;;;;;;24.03;65.25;100153.15;108507;1274;22269;-62
2023/06/03 04:13:07;;;;;;;7.70;3.40;;;;;;;24.14;64.93;100151.53;108564;1277;21982;-61
2023/06/03 04:15:33;;;;;;;5.50;3.30;;;;;;;24.24;66.16;100150.39;108764;1279;21988;-61
2023/06/03 04:18:00;;;;;;;7.10;4.10;;;;;;;24.36;66.24;100151.71;108813;1277;21985;-72
2023/06/03 04:20:44;;;;;;;7.80;4.00;;;;;;;24.45;66.91;100154.61;108579;1268;21980;-62
2023/06/03 04:23:16;;;;;;;9.00;3.90;;;;;;;24.59;66.54;100158.95;108519;1270;21977;-69
2023/06/03 04:25:43;;;;;;;6.40;4.50;;;;;;;24.75;68.05;100166.98;108450;1279;23376;-64
2023/06/03 04:28:11;;;;;;;9.80;4.30;;;;;;;24.89;70.11;100166.28;108405;1278;21987;-68
2023/06/03 04:30:37;;;;;;;7.00;4.40;;;;;;;25.02;68.15;100167.59;108386;1279;21986;-63
2023/06/03 04:33:03;;;;;;;5.20;3.50;;;;;;;25.15;67.73;100165.41;108474;1274;21992;-70
2023/06/03 04:35:29;;;;;;;9.70;3.90;;;;;;;25.23;67.46;100165.27;108381;1274;21980;-64
2023/06/03 04:37:56;;;;;;;6.80;3.90;;;;;;;25.36;68.28;100168.63;108399;1274;21987;-70
2023/06/03 04:40:22;;;;;;;7.10;4.10;;;;;;;25.53;67.37;100174.36;108425;1268;21992;-64
2023/06/03 04:42:47;;;;;;;6.50;3.60;;;;;;;25.67;67.44;100175.58;108684;1268;21980;-64
2023/06/03 04:45:13;;;;;;;5.20;3.90;;;;;;;25.77;67.78;100180.48;108496;1279;21980;-72
2023/06/03 04:47:41;;;;;;;4.50;3.60;;;;;;;25.87;66.83;100184.38;108488;1274;21949;-72
2023/06/03 04:50:10;;;;;;;6.50;3.50;;;;;;;25.94;66.02;100185.98;108464;1278;21985;-72
2023/06/03 04:52:36;;;;;;;6.20;3.80;;;;;;;26.03;64.96;100192.34;108402;1280;21980;-71
2023/06/03 04:55:02;;;;;;;7.60;4.10;;;;;;;26.09;65.41;100197.23;108467;1274;23791;-71
2023/06/03 04:57:28;;;;;;;7.20;3.60;;;;;;;26.14;64.62;100199.36;108470;1277;23619;-65
2023/06/03 04:59:54;;;;;;;6.80;3.80;;;;;;;26.15;63.82;100200.54;108445;1272;22050;-64
2023/06/03 05:02:23;;;;;;;13.30;4.10;;;;;;;26.11;62.72;100195.93;108419;1274;21980;-69
2023/06/03 05:04:49;;;;;;;8.60;4.20;;;;;;;26.10;62.47;100198.55;108502;1280;21983;-64
2023/06/03 05:07:15;;;;;;;6.60;3.70;;;;;;;26.09;62.30;100201.17;108522;1277;21997;-71
2023/06/03 05:09:40;;;;;;;10.30;3.70;;;;;;;26.04;62.08;100205.70;108472;1274;21972;-70
2023/06/03 05:12:07;;;;;;;5.30;3.70;;;;;;;25.96;61.91;100203.13;108509;1280;22021;-64
2023/06/03 05:14:33;;;;;;;8.90;3.80;;;;;;;25.89;61.74;100205.13;108547;1280;21978;-70
2023/06/03 05:16:59;;;;;;;11.20;4.40;;;;;;;25.87;62.15;100202.90;108494;1280;22019;-65
2023/06/03 05:19:24;;;;;;;8.70;4.30;;;;;;;25.88;62.43;100204.09;108504;1280;21985;-70
2023/06/03 05:21:50;;;;;;;11.50;5.40;;;;;;;25.92;62.26;100209.18;108486;1280;22097;-64
2023/06/03 05:24:15;;;;;;;10.10;4.50;;;;;;;26.01;62.78;100217.63;108449;1274;21980;-64
2023/06/03 05:26:41;;;;;;;7.40;3.90;;;;;;;26.14;61.51;100222.60;108465;1271;21999;-63
2023/06/03 05:29:07;;;;;;;6.50;4.10;;;;;;;26.21;60.64;100221.67;108512;1280;23102;-63
2023/06/03 05:31:32;;;;;;;22.90;5.30;;;;;;;26.32;60.64;100220.98;108553;1269;22101;-68
2023/06/03 05:33:59;;;;;;;8.60;4.00;;;;;;;26.43;60.15;100225.98;108537;1277;21988;-63
2023/06/03 05:36:28;;;;;;;8.40;4.00;;;;;;;26.53;59.45;100224.44;108526;1277;21980;-62
2023/06/03 05:38:53;;;;;;;11.40;4.40;;;;;;;26.64;58.97;100222.85;108514;1280;21982;-62
2023/06/03 05:41:19;;;;;;;7.20;4.10;;;;;;;26.73;58.82;100223.48;108448;1280;21989;-68
2023/06/03 05:43:44;;;;;;;8.20;4.30;;;;;;;26.84;59.00;100225.18;108509;1274;21992;-68
2023/06/03 05:46:11;;;;;;;10.50;4.30;;;;;;;26.97;58.92;100220.47;108418;1279;21977;-61
2023/06/03 05:48:36;;;;;;;7.10;3.90;;;;;;;27.13;58.53;100221.16;108407;1274;21992;-62
2023/06/03 05:51:02;;;;;;;7.80;4.30;;;;;;;27.30;58.10;100222.82;108417;1274;22018;-61
2023/06/03 05:53:29;;;;;;;7.10;4.10;;;;;;;27.51;58.22;100224.45;108461;1277;21993;-67
2023/06/03 05:55:55;;;;;;;7.30;4.30;;;;;;;27.72;57.61;100224.41;108514;1280;22445;-66
2023/06/03 05:58:22;;;;;;;8.20;4.40;;;;;;;27.91;56.83;100226.20;108475;1271;21993;-63
2023/06/03 06:00:47;;;;;;;6.50;4.50;;;;;;;28.12;56.83;100228.52;108526;1274;22446;-67
2023/06/03 06:03:13;;;;;;;5.80;4.20;;;;;;;28.35;56.45;100225.58;108507;1268;21986;-66
2023/06/03 06:05:39;;;;;;;9.20;4.00;;;;;;;28.59;56.37;100221.84;108580;1280;21967;-67
2023/06/03 06:08:05;;;;;;;6.40;4.70;;;;;;;28.80;55.34;100223.04;108572;1273;21986;-62
2023/06/03 06:10:32;;;;;;;10.70;4.40;;;;;;;29.02;55.64;100223.56;108521;1280;21978;-66
2023/06/03 06:12:58;;;;;;;8.20;4.40;;;;;;;29.34;55.37;100225.13;108488;1280;21952;-64
2023/06/03 06:15:28;;;;;;;7.40;4.30;;;;;;;29.58;54.63;100228.67;108510;1280;22000;-65
2023/06/03 06:17:53;;;;;;;9.90;3.90;;;;;;;29.79;54.63;100229.52;108486;1274;21980;-66
2023/06/03 06:20:19;;;;;;;6.90;4.10;;;;;;;30.03;54.54;100235.65;108607;1279;22448;-65
2023/06/03 06:22:48;;;;;;;7.00;3.90;;;;;;;30.25;53.60;100239.67;108518;1280;21975;-65
2023/06/03 06:25:13;;;;;;;7.90;4.50;;;;;;;30.37;52.68;100246.75;108517;1280;22018;-65
2023/06/03 06:27:40;;;;;;;5.60;3.90;;;;;;;30.51;52.44;100251.39;108390;1280;21977;-65
2023/06/03 06:30:06;;;;;;;9.30;4.10;;;;;;;30.66;52.46;100256.30;108457;1274;21971;-63
2023/06/03 06:32:56;;;;;;;6.80;4.10;;;;;;;30.83;51.65;100254.41;108521;1274;22287;-64
2023/06/03 06:35:21;;;;;;;6.90;4.20;;;;;;;31.05;50.61;100258.58;108489;1280;21985;-64
2023/06/03 06:37:47;;;;;;;7.30;4.20;;;;;;;31.14;49.00;100262.17;108465;1280;22756;-62
2023/06/03 06:40:19;;;;;;;8.20;4.10;;;;;;;31.24;49.10;100262.48;108482;1278;21979;-65
2023/06/03 06:42:46;;;;;;;8.10;4.10;;;;;;;31.27;47.24;100267.20;108487;1273;21981;-65
2023/06/03 06:45:23;;;;;;;12.40;4.20;;;;;;;31.15;46.13;100270.62;108582;1279;21997;-61
2023/06/03 06:47:48;;;;;;;7.30;4.50;;;;;;;31.00;46.15;100275.15;108458;1274;23626;-61
2023/06/03 06:50:55;;;;;;;7.60;4.60;;;;;;;30.97;46.42;100281.33;108458;1276;21970;-62
2023/06/03 06:53:24;;;;;;;6.20;4.20;;;;;;;30.87;45.29;100284.27;108484;1277;21985;-62
2023/06/03 06:55:57;;;;;;;6.90;4.40;;;;;;;30.79;45.82;100290.83;108445;1274;21985;-65
2023/06/03 06:58:25;;;;;;;7.80;4.00;;;;;;;30.83;46.31;100294.84;108499;1277;23719;-65
2023/06/03 07:00:51;;;;;;;10.00;4.90;;;;;;;30.89;46.11;100296.55;108474;1266;22922;-63
2023/06/03 07:03:18;;;;;;;7.30;4.20;;;;;;;30.98;45.95;100303.08;108654;1274;22441;-65
2023/06/03 07:05:45;;;;;;;12.50;4.60;;;;;;;31.07;45.68;100304.88;108631;1279;21978;-65
2023/06/03 07:08:10;;;;;;;7.00;4.10;;;;;;;31.14;45.09;100309.27;108459;1271;21979;-65
2023/06/03 07:10:37;;;;;;;7.00;4.10;;;;;;;31.26;45.02;100314.12;108438;1279;23094;-62
2023/06/03 07:13:03;;;;;;;12.00;4.10;;;;;;;31.43;45.01;100318.04;108642;1277;21980;-66
2023/06/03 07:15:29;;;;;;;7.20;3.80;;;;;;;31.56;44.66;100318.48;108492;1274;24319;-62
2023/06/03 07:17:56;;;;;;;7.90;4.00;;;;;;;31.61;44.23;100320.54;108469;1268;22015;-65
2023/06/03 07:20:30;;;;;;;6.20;4.00;;;;;;;31.65;44.37;100315.11;108622;1279;23618;-61
2023/06/03 07:22:56;;;;;;;5.40;3.90;;;;;;;31.63;44.21;100323.80;108459;1274;21978;-64
2023/06/03 07:25:36;;;;;;;7.10;4.00;;;;;;;31.56;44.01;100325.41;108585;1271;21981;-66
2023/06/03 07:28:03;;;;;;;8.10;4.20;;;;;;;31.36;44.01;100324.66;108461;1279;22000;-63
2023/06/03 07:30:29;;;;;;;7.70;4.00;;;;;;;31.07;44.64;100325.80;108406;1274;21986;-61
2023/06/03 07:32:59;;;;;;;6.00;3.60;;;;;;;30.70;44.77;100322.73;108377;1279;21982;-61
2023/06/03 07:35:24;;;;;;;9.50;3.80;;;;;;;30.27;44.95;100319.80;108458;1275;23097;-64
2023/06/03 07:37:50;;;;;;;6.40;3.70;;;;;;;29.82;45.67;100321.37;108398;1279;21985;-66
2023/06/03 07:40:16;;;;;;;8.10;4.30;;;;;;;29.37;46.18;100326.02;108356;1274;21980;-61
2023/06/03 07:42:45;;;;;;;7.90;4.60;;;;;;;28.87;46.92;100323.63;108356;1279;21999;-62
2023/06/03 07:45:13;;;;;;;6.40;4.50;;;;;;;28.44;47.50;100331.46;108409;1274;21982;-64
2023/06/03 07:47:39;;;;;;;7.00;4.10;;;;;;;28.00;48.24;100337.55;108505;1279;21975;-63
2023/06/03 07:50:34;;;;;;;7.90;4.70;;;;;;;27.66;49.21;100345.15;108515;1273;22005;-63
2023/06/03 07:53:02;;;;;;;8.90;4.50;;;;;;;27.33;49.60;100357.42;108376;1279;21989;-63
2023/06/03 07:55:51;;;;;;;7.40;3.60;;;;;;;27.10;50.55;100360.25;108669;1279;21988;-64
2023/06/03 07:58:17;;;;;;;6.60;4.00;;;;;;;26.86;50.92;100361.45;108386;1277;21987;-62
2023/06/03 08:00:49;;;;;;;10.40;4.40;;;;;;;26.73;51.76;100368.94;108390;1279;22450;-62
2023/06/03 08:03:18;;;;;;;8.40;4.30;;;;;;;26.63;52.01;100365.42;108429;1277;23708;-61
2023/06/03 08:05:48;;;;;;;6.30;3.80;;;;;;;26.57;52.16;100372.20;108632;1279;21985;-63
2023/06/03 08:08:16;;;;;;;9.30;3.90;;;;;;;26.56;52.30;100377.13;108680;1279;22071;-62
2023/06/03 08:10:42;;;;;;;11.20;4.70;;;;;;;26.60;53.26;100379.55;108534;1274;21980;-63
2023/06/03 08:13:08;;;;;;;8.80;4.30;;;;;;;26.64;53.21;100384.61;108434;1274;21982;-64
2023/06/03 08:15:35;;;;;;;9.00;4.10;;;;;;;26.71;53.70;100391.23;108392;1268;22068;-62
2023/06/03 08:18:07;;;;;;;12.20;4.20;;;;;;;26.73;54.64;100397.36;108557;1279;21980;-62
2023/06/03 08:20:34;;;;;;;9.40;4.70;;;;;;;26.77;55.30;100400.35;108435;1279;21980;-61
2023/06/03 08:23:00;;;;;;;7.50;4.00;;;;;;;26.77;55.03;100401.92;108436;1271;21977;-65
2023/06/03 08:25:25;;;;;;;1421.00;994.50;;;;;;;26.74;54.74;100404.48;108374;1279;21979;-69
2023/06/03 08:27:51;;;;;;;1288.90;998.80;;;;;;;26.73;54.49;100407.27;108449;1271;21986;-60
2023/06/03 08:30:19;;;;;;;1245.60;986.70;;;;;;;26.83;54.73;100413.17;108362;1271;21983;-69
2023/06/03 08:32:45;;;;;;;1281.10;976.80;;;;;;;26.93;55.31;100413.45;108562;1274;23054;-69
2023/06/03 08:35:12;;;;;;;1260.10;977.40;;;;;;;27.02;54.92;100415.98;108482;1274;22042;-58
2023/06/03 08:37:38;;;;;;;1272.60;986.60;;;;;;;27.11;54.93;100418.65;108483;1274;21991;-57
2023/06/03 08:40:09;;;;;;;1227.30;964.10;;;;;;;27.19;55.21;100415.86;108475;1268;21986;-61
2023/06/03 08:42:38;;;;;;;1260.40;975.70;;;;;;;27.19;55.78;100423.38;108562;1280;21985;-68
2023/06/03 08:45:07;;;;;;;1200.70;969.30;;;;;;;27.15;55.75;100430.20;108522;1273;22021;-60
2023/06/03 08:48:00;;;;;;;1222.10;972.10;;;;;;;27.15;55.71;100438.49;108497;1271;22444;-66
2023/06/03 08:50:27;;;;;;;1226.30;974.00;;;;;;;27.08;56.48;100441.95;108565;1278;22050;-67
2023/06/03 08:52:53;;;;;;;1297.40;959.80;;;;;;;27.03;56.69;100445.27;108448;1275;21984;-59
2023/06/03 08:55:19;;;;;;;645.30;512.80;;;;;;;27.06;57.37;100448.61;108374;1274;21983;-59
2023/06/03 08:57:50;;;;;;;526.40;452.60;;;;;;;27.25;58.49;100452.48;108501;1277;21985;-68
2023/06/03 09:00:18;;;;;;;570.80;462.90;;;;;;;27.47;58.30;100453.95;108455;1279;21978;-61
2023/06/03 09:02:43;;;;;;;555.30;441.60;;;;;;;27.70;59.64;100456.56;108542;1268;21995;-62
2023/06/03 09:05:09;;;;;;;612.50;496.10;;;;;;;27.94;57.74;100454.41;108585;1279;21988;-67
2023/06/03 09:07:35;;;;;;;601.70;476.80;;;;;;;28.12;57.09;100457.21;108529;1271;21983;-61
2023/06/03 09:10:02;;;;;;;613.40;464.90;;;;;;;28.37;57.16;100463.08;108484;1274;22020;-68
2023/06/03 09:12:29;;;;;;;607.60;472.70;;;;;;;28.64;56.94;100465.04;108552;1277;21995;-67
2023/06/03 09:14:55;;;;;;;631.90;489.60;;;;;;;28.96;56.01;100467.14;108564;1274;21990;-60
2023/06/03 09:17:23;;;;;;;600.80;459.10;;;;;;;29.29;55.93;100471.81;108498;1274;23621;-60
2023/06/03 09:19:49;;;;;;;608.00;477.10;;;;;;;29.70;55.62;100466.53;108429;1274;21985;-66
2023/06/03 09:22:15;;;;;;;710.20;542.60;;;;;;;30.07;54.65;100463.27;108554;1279;21977;-60
2023/06/03 09:24:42;;;;;;;751.10;612.90;;;;;;;30.39;52.79;100459.76;108630;1274;23114;-62
2023/06/03 09:27:07;;;;;;;787.00;602.60;;;;;;;30.57;51.86;100462.77;108677;1274;22017;-61
2023/06/03 09:29:33;;;;;;;710.60;607.70;;;;;;;30.67;51.36;100461.30;108492;1271;23472;-61
2023/06/03 09:31:59;;;;;;;716.30;625.50;;;;;;;30.73;50.67;100464.19;108488;1271;22926;-65
2023/06/03 09:34:26;;;;;;;707.30;609.10;;;;;;;30.77;50.29;100461.09;108388;1278;21984;-62
2023/06/03 09:36:51;;;;;;;792.20;679.60;;;;;;;30.78;49.40;100464.64;108559;1279;21991;-66
2023/06/03 09:39:31;;;;;;;824.80;706.50;;;;;;;30.75;48.90;100473.42;108623;1277;21994;-67
2023/06/03 09:41:57;;;;;;;857.70;666.00;;;;;;;30.71;48.48;100476.13;108487;1280;21983;-69
2023/06/03 09:44:22;;;;;;;856.20;672.50;;;;;;;30.69;48.14;100481.19;108537;1279;21982;-61
2023/06/03 09:46:49;;;;;;;780.50;663.20;;;;;;;30.64;48.32;100482.96;108451;1274;24399;-67
2023/06/03 09:49:21;;;;;;;782.50;659.80;;;;;;;30.62;48.23;100482.31;108516;1274;22444;-61
2023/06/03 09:51:48;;;;;;;922.10;688.90;;;;;;;30.58;47.89;100479.59;108524;1279;22096;-60
2023/06/03 09:54:14;;;;;;;810.90;677.90;;;;;;;30.60;47.70;100481.97;108438;1279;21988;-66
2023/06/03 09:56:40;;;;;;;831.80;710.80;;;;;;;30.78;48.33;100492.48;108467;1280;21985;-60
2023/06/03 09:59:21;;;;;;;813.80;679.20;;;;;;;31.04;47.83;100493.98;108477;1276;22158;-61
2023/06/03 10:01:47;;;;;;;;;;;;;;;31.36;47.49;100493.42;108499;1270;21965;-62
2023/06/03 10:04:20;;;;;;;902.70;706.60;;;;;;;31.57;46.38;100494.84;108400;1274;21984;-60
2023/06/03 10:07:06;;;;;;;858.20;721.80;;;;;;;31.75;45.89;100496.73;108534;1278;21986;-61
2023/06/03 10:09:31;;;;;;;960.60;789.40;;;;;;;31.84;45.45;100502.20;108496;1274;21975;-66
2023/06/03 10:11:57;;;;;;;928.50;788.40;;;;;;;31.72;44.15;100504.05;108417;1275;22167;-67
2023/06/03 10:14:25;;;;;;;919.20;780.90;;;;;;;31.60;44.41;100507.55;108484;1268;21983;-69
2023/06/03 10:17:10;;;;;;;1031.10;793.70;;;;;;;31.60;44.69;100508.46;108509;1267;22920;-68
2023/06/03 10:19:40;;;;;;;994.30;777.30;;;;;;;31.65;44.88;100508.41;108519;1279;21991;-61
2023/06/03 10:22:07;;;;;;;913.70;768.20;;;;;;;31.64;44.29;100509.19;108457;1274;21993;-66
2023/06/03 10:24:34;;;;;;;886.40;736.80;;;;;;;31.68;44.89;100510.80;108474;1268;21985;-69
2023/06/03 10:27:01;;;;;;;1032.40;780.00;;;;;;;31.91;45.54;100507.11;108481;1279;22736;-62
2023/06/03 10:29:27;;;;;;;907.70;776.30;;;;;;;32.11;45.13;100506.14;108528;1280;21974;-62
2023/06/03 10:31:53;;;;;;;946.60;793.60;;;;;;;32.28;44.33;100507.34;108420;1278;21991;-62
2023/06/03 10:34:19;;;;;;;965.20;815.50;;;;;;;32.34;43.77;100516.35;108428;1271;21988;-61
2023/06/03 10:36:52;;;;;;;977.90;831.30;;;;;;;32.20;42.94;100515.40;108399;1279;21982;-68
2023/06/03 10:39:19;;;;;;;1117.60;842.10;;;;;;;31.94;42.78;100516.95;108394;1279;21980;-63
2023/06/03 10:41:45;;;;;;;972.00;807.30;;;;;;;31.74;43.06;100521.29;108385;1272;21985;-63
2023/06/03 10:44:10;;;;;;;1125.40;854.00;;;;;;;31.64;42.89;100518.98;108604;1279;21990;-62
2023/06/03 10:46:41;;;;;;;983.90;828.10;;;;;;;31.56;42.66;100520.91;108409;1279;22082;-68
2023/06/03 10:49:07;;;;;;;1083.20;844.70;;;;;;;31.58;43.15;100521.54;108643;1277;21991;-62
2023/06/03 10:51:44;;;;;;;1014.90;830.80;;;;;;;31.55;42.68;100526.34;108420;1280;21978;-62
2023/06/03 10:54:30;;;;;;;1001.30;831.40;;;;;;;31.35;41.51;100529.81;108455;1280;21982;-63
2023/06/03 10:57:06;;;;;;;1005.20;843.20;;;;;;;31.06;42.13;100532.92;108475;1280;21984;-63
2023/06/03 10:59:42;;;;;;;1118.10;885.20;;;;;;;30.78;42.44;100537.58;108474;1280;21993;-67
2023/06/03 11:02:08;;;;;;;926.80;786.70;;;;;;;30.63;42.82;100538.27;108482;1277;22308;-67
2023/06/03 11:04:38;;;;;;;933.10;789.50;;;;;;;30.58;43.07;100543.48;108419;1278;21990;-63
2023/06/03 11:07:05;;;;;;;930.60;789.20;;;;;;;30.56;42.97;100546.73;108531;1280;23999;-62
2023/06/03 11:09:35;;;;;;;947.90;812.40;;;;;;;30.52;42.77;100550.72;108576;1280;24323;-68
2023/06/03 11:12:05;;;;;;;768.70;684.90;;;;;;;30.52;42.73;100547.09;108482;1280;22703;-67